Terminal Aerodrome Forecast
Issued by NWS

Home | Current Version | Previous Version | Text Only | Print | Product List | Glossary On
Versions: 1 2 3 4 5 6 7 8 9 10 11 12 13 14 15 16 17 18 19 20 21
000
FTUS45 KSLC 161733
TAFPVU
TAF
KPVU 161733Z 1618/1718 35004KT 3SM BR OVC025
      TEMPO 1618/1619 2SM -SN BR OVC022
     FM162000 36005KT P6SM FEW025
     FM170800 VRB03KT 5SM BR BKN025=

USA.gov is the U.S. government's official web portal to all federal, state and local government web resources and services.